createdAt,value
2019-05-17T00:02:12.597Z,100869.81
2019-05-17T00:04:43.173Z,100867.64
2019-05-17T00:07:13.678Z,100862.19
2019-05-17T00:09:44.171Z,100863.56
2019-05-17T00:12:16.631Z,100855.48
2019-05-17T00:14:47.270Z,100853.59
2019-05-17T00:17:17.873Z,100852.61
2019-05-17T00:19:48.240Z,100837.80
2019-05-17T00:22:18.767Z,100842.91
2019-05-17T00:24:49.220Z,100846.81
2019-05-17T00:27:19.661Z,100851.75
2019-05-17T00:29:50.252Z,100834.66
2019-05-17T00:32:20.637Z,100834.33
2019-05-17T00:34:51.061Z,100836.60
2019-05-17T00:37:21.471Z,100840.58
2019-05-17T00:39:52.068Z,100836.38
2019-05-17T00:42:22.517Z,100838.91
2019-05-17T00:44:53.054Z,100843.34
2019-05-17T00:47:23.498Z,100827.79
2019-05-17T00:49:53.957Z,100824.52
2019-05-17T00:52:24.380Z,100819.64
2019-05-17T00:54:56.346Z,100817.58
2019-05-17T00:57:27.469Z,100814.59
2019-05-17T00:59:58.008Z,100809.91
2019-05-17T01:02:28.460Z,100807.99
2019-05-17T01:04:58.849Z,100812.76
2019-05-17T01:07:29.390Z,100809.91
2019-05-17T01:09:59.858Z,100814.72
2019-05-17T01:12:30.283Z,100812.30
2019-05-17T01:15:00.816Z,100804.50
2019-05-17T01:17:31.262Z,100803.93
2019-05-17T01:20:01.743Z,100808.80
2019-05-17T01:22:32.318Z,100801.98
2019-05-17T01:25:02.800Z,100799.11
2019-05-17T01:27:33.292Z,100801.29
2019-05-17T01:30:03.781Z,100806.58
2019-05-17T01:32:34.258Z,100801.53
2019-05-17T01:35:07.018Z,100797.58
2019-05-17T01:37:37.306Z,100793.27
2019-05-17T01:40:08.044Z,100796.46
2019-05-17T01:42:38.497Z,100794.53
2019-05-17T01:45:09.200Z,100792.27
2019-05-17T01:47:39.650Z,100788.56
2019-05-17T01:50:11.621Z,100786.15
2019-05-17T01:52:42.149Z,100783.92
2019-05-17T01:55:12.610Z,100783.45
2019-05-17T01:57:43.044Z,100782.70
2019-05-17T02:00:17.276Z,100779.53
2019-05-17T02:02:48.701Z,100778.46
2019-05-17T02:05:19.693Z,100781.61
2019-05-17T02:07:50.146Z,100777.31
2019-05-17T02:10:21.094Z,100774.67
2019-05-17T02:12:51.580Z,100775.53
2019-05-17T02:15:22.468Z,100771.66
2019-05-17T02:17:52.858Z,100765.68
2019-05-17T02:20:23.937Z,100760.86
2019-05-17T02:22:56.371Z,100757.88
2019-05-17T02:25:27.224Z,100757.35
2019-05-17T02:27:57.874Z,100746.92
2019-05-17T02:30:28.355Z,100748.02
2019-05-17T02:33:03.392Z,100750.98
2019-05-17T02:35:33.663Z,100756.14
2019-05-17T02:38:04.078Z,100749.89
2019-05-17T02:40:34.572Z,100751.27
2019-05-17T02:43:05.096Z,100743.52
2019-05-17T02:45:35.535Z,100740.30
2019-05-17T02:48:05.996Z,100743.71
2019-05-17T02:50:36.415Z,100743.94
2019-05-17T02:53:06.843Z,100735.10
2019-05-17T02:55:37.332Z,100744.41
2019-05-17T02:58:07.821Z,100740.52
2019-05-17T03:00:38.250Z,100739.13
2019-05-17T03:03:08.709Z,100747.35
2019-05-17T03:05:42.817Z,100751.11
2019-05-17T03:08:12.279Z,100748.84
2019-05-17T03:10:43.461Z,100750.52
2019-05-17T03:13:17.633Z,100757.91
2019-05-17T03:15:46.053Z,100762.84
2019-05-17T03:18:16.549Z,100761.41
2019-05-17T03:20:46.998Z,100757.80
2019-05-17T03:23:17.479Z,100762.11
2019-05-17T03:25:47.884Z,100758.43
2019-05-17T03:28:18.334Z,100767.91
2019-05-17T03:30:55.642Z,100759.99
2019-05-17T03:33:26.412Z,100763.91
2019-05-17T03:35:56.458Z,100764.61
2019-05-17T03:38:27.905Z,100757.66
2019-05-17T03:41:13.482Z,100755.37
2019-05-17T03:43:30.604Z,100752.04
2019-05-17T03:46:02.652Z,100752.95
2019-05-17T03:48:33.658Z,100752.53
2019-05-17T03:51:04.140Z,100742.32
2019-05-17T03:53:34.617Z,100745.19
2019-05-17T03:56:05.255Z,100738.04
2019-05-17T03:58:35.732Z,100739.07
2019-05-17T04:01:06.220Z,100743.25
2019-05-17T04:03:36.731Z,100746.93
2019-05-17T04:06:07.169Z,100745.16
2019-05-17T04:08:37.673Z,100747.78
2019-05-17T04:11:22.475Z,100742.52
2019-05-17T04:13:43.036Z,100754.60
2019-05-17T04:16:13.922Z,100750.22
2019-05-17T04:18:44.862Z,100747.13
2019-05-17T04:21:15.251Z,100746.44
2019-05-17T04:23:45.843Z,100746.91
2019-05-17T04:26:16.304Z,100751.56
2019-05-17T04:28:46.755Z,100751.23
2019-05-17T04:31:17.278Z,100753.98
2019-05-17T04:33:47.745Z,100750.74
2019-05-17T04:36:18.334Z,100750.55
2019-05-17T04:38:48.809Z,100755.92
2019-05-17T04:41:38.773Z,100760.53
2019-05-17T04:43:53.222Z,100755.15
2019-05-17T04:46:23.827Z,100763.84
2019-05-17T04:48:54.357Z,100761.12
2019-05-17T04:51:24.820Z,100763.52
2019-05-17T04:53:55.315Z,100758.91
2019-05-17T04:56:25.828Z,100756.28
2019-05-17T04:58:56.314Z,100755.29
2019-05-17T05:01:26.875Z,100754.95
2019-05-17T05:03:57.371Z,100752.30
2019-05-17T05:06:32.561Z,100744.60
2019-05-17T05:09:02.753Z,100747.75
2019-05-17T05:11:33.439Z,100743.19
2019-05-17T05:14:04.021Z,100745.13
2019-05-17T05:16:34.478Z,100740.64
2019-05-17T05:19:04.955Z,100738.48
2019-05-17T05:21:35.424Z,100737.22
2019-05-17T05:24:05.920Z,100730.05
2019-05-17T05:26:36.391Z,100725.52
2019-05-17T05:29:06.863Z,100731.69
2019-05-17T05:31:37.343Z,100733.30
2019-05-17T05:34:07.811Z,100735.48
2019-05-17T05:36:38.364Z,100744.10
2019-05-17T05:39:11.524Z,100746.48
2019-05-17T05:41:42.720Z,100748.20
2019-05-17T05:44:13.313Z,100752.30
2019-05-17T05:46:43.807Z,100748.92
2019-05-17T05:49:14.295Z,100743.76
2019-05-17T05:51:44.847Z,100748.35
2019-05-17T05:54:15.327Z,100746.75
2019-05-17T05:56:45.796Z,100755.02
2019-05-17T05:59:16.314Z,100753.06
2019-05-17T06:01:46.772Z,100751.66
2019-05-17T06:04:17.260Z,100755.11
2019-05-17T06:06:47.754Z,100751.48
2019-05-17T06:09:18.264Z,100749.95
2019-05-17T06:11:48.743Z,100748.92
2019-05-17T06:14:21.459Z,100749.31
2019-05-17T06:16:52.050Z,100745.61
2019-05-17T06:19:22.714Z,100745.05
2019-05-17T06:21:53.195Z,100737.42
2019-05-17T06:24:23.711Z,100748.24
2019-05-17T06:26:54.285Z,100743.72
2019-05-17T06:29:24.828Z,100745.34
2019-05-17T06:31:55.310Z,100742.36
2019-05-17T06:34:25.778Z,100738.87
2019-05-17T06:36:56.331Z,100739.42
2019-05-17T06:39:26.745Z,100740.11
2019-05-17T06:41:57.213Z,100734.44
2019-05-17T06:44:27.741Z,100739.63
2019-05-17T06:46:58.232Z,100739.25
2019-05-17T06:49:28.749Z,100734.22
2019-05-17T06:51:59.279Z,100737.88
2019-05-17T06:54:29.737Z,100738.47
2019-05-17T06:57:03.068Z,100732.12
2019-05-17T06:59:32.436Z,100727.41
2019-05-17T07:02:02.936Z,100731.87
2019-05-17T07:04:33.411Z,100728.24
2019-05-17T07:07:21.698Z,100741.33
2019-05-17T07:09:52.225Z,100736.74
2019-05-17T07:12:22.701Z,100737.86
2019-05-17T07:14:53.262Z,100731.98
2019-05-17T07:17:24.310Z,100734.17
2019-05-17T07:19:54.774Z,100731.66
2019-05-17T07:22:25.331Z,100730.33
2019-05-17T07:24:55.810Z,100736.64
2019-05-17T07:27:37.944Z,100746.11
2019-05-17T07:29:59.278Z,100747.09
2019-05-17T07:32:29.971Z,100742.39
2019-05-17T07:35:00.565Z,100738.30
2019-05-17T07:37:31.338Z,100740.27
2019-05-17T07:40:05.110Z,100733.59
2019-05-17T07:42:34.275Z,100734.98
2019-05-17T07:45:05.588Z,100722.94
2019-05-17T07:47:36.106Z,100723.34
2019-05-17T07:50:10.832Z,100719.02
2019-05-17T07:52:40.475Z,100722.13
2019-05-17T07:55:11.380Z,100727.38
2019-05-17T07:57:41.931Z,100719.77
2019-05-17T08:00:14.358Z,100717.43
2019-05-17T08:02:44.822Z,100716.31
2019-05-17T08:05:15.816Z,100712.47
2019-05-17T08:07:46.467Z,100720.61
2019-05-17T08:10:20.196Z,100723.99
2019-05-17T08:12:49.929Z,100715.26
2019-05-17T08:15:20.472Z,100718.30
2019-05-17T08:17:50.952Z,100716.84
2019-05-17T08:20:21.443Z,100726.96
2019-05-17T08:22:52.028Z,100733.73
2019-05-17T08:25:22.657Z,100722.66
2019-05-17T08:27:53.125Z,100722.03
2019-05-17T08:30:24.318Z,100721.25
2019-05-17T08:32:54.798Z,100727.08
2019-05-17T08:35:25.323Z,100730.31
2019-05-17T08:37:55.844Z,100725.66
2019-05-17T08:40:26.328Z,100737.37
2019-05-17T08:42:56.924Z,100733.66
2019-05-17T08:45:29.499Z,100734.28
2019-05-17T08:48:00.384Z,100738.54
2019-05-17T08:50:31.291Z,100725.92
2019-05-17T08:53:02.048Z,100722.47
2019-05-17T08:55:32.549Z,100723.36
2019-05-17T08:58:03.245Z,100723.77
2019-05-17T09:00:33.765Z,100720.38
2019-05-17T09:03:04.395Z,100713.08
2019-05-17T09:05:34.889Z,100717.48
2019-05-17T09:08:05.477Z,100712.58
2019-05-17T09:10:36.022Z,100705.14
2019-05-17T09:13:06.567Z,100697.70
2019-05-17T09:15:37.062Z,100693.92
2019-05-17T09:18:09.804Z,100692.27
2019-05-17T09:20:40.580Z,100696.44
2019-05-17T09:23:11.514Z,100690.19
2019-05-17T09:25:42.011Z,100689.83
2019-05-17T09:28:12.571Z,100689.85
2019-05-17T09:30:45.648Z,100685.78
2019-05-17T09:33:16.172Z,100683.81
2019-05-17T09:35:46.723Z,100689.44
2019-05-17T09:38:17.251Z,100690.92
2019-05-17T09:40:47.718Z,100687.14
2019-05-17T09:43:20.700Z,100684.81
2019-05-17T09:45:51.473Z,100688.72
2019-05-17T09:48:21.911Z,100685.47
2019-05-17T09:50:52.402Z,100682.78
2019-05-17T09:53:23.708Z,100681.81
2019-05-17T09:55:54.343Z,100683.74
2019-05-17T09:58:24.888Z,100680.59
2019-05-17T10:00:55.475Z,100680.49
2019-05-17T10:03:26.076Z,100681.55
2019-05-17T10:05:56.564Z,100674.81
2019-05-17T10:08:27.204Z,100665.35
2019-05-17T10:11:06.009Z,100653.23
2019-05-17T10:13:29.964Z,100655.39
2019-05-17T10:16:00.597Z,100654.02
2019-05-17T10:18:31.601Z,100654.02
2019-05-17T10:21:02.109Z,100649.22
2019-05-17T10:23:32.743Z,100647.88
2019-05-17T10:26:10.590Z,100639.41
2019-05-17T10:28:56.178Z,100636.86
2019-05-17T10:31:30.251Z,100643.02
2019-05-17T10:34:16.853Z,100642.98
2019-05-17T10:36:50.532Z,100636.38
2019-05-17T10:39:20.107Z,100634.41
2019-05-17T10:41:53.974Z,100630.36
2019-05-17T10:44:24.595Z,100628.14
2019-05-17T10:46:55.217Z,100622.94
2019-05-17T10:49:25.838Z,100622.28
2019-05-17T10:51:56.382Z,100622.25
2019-05-17T10:54:29.964Z,100622.34
2019-05-17T10:57:00.205Z,100613.98
2019-05-17T10:59:30.666Z,100615.45
2019-05-17T11:02:01.208Z,100611.62
2019-05-17T11:04:31.852Z,100609.61
2019-05-17T11:07:02.380Z,100614.06
2019-05-17T11:09:32.936Z,100604.79
2019-05-17T11:12:03.585Z,100608.38
2019-05-17T11:14:38.327Z,100613.68
2019-05-17T11:17:06.762Z,100611.02
2019-05-17T11:19:37.468Z,100616.28
2019-05-17T11:22:08.070Z,100612.59
2019-05-17T11:24:38.600Z,100609.06
2019-05-17T11:27:09.215Z,100608.30
2019-05-17T11:29:39.979Z,100607.55
2019-05-17T11:32:10.614Z,100607.26
2019-05-17T11:34:41.161Z,100615.66
2019-05-17T11:37:11.899Z,100606.47
2019-05-17T11:39:42.664Z,100600.56
2019-05-17T11:42:13.474Z,100602.22
2019-05-17T11:44:44.200Z,100596.45
2019-05-17T11:47:14.939Z,100597.20
2019-05-17T11:49:45.624Z,100594.45
2019-05-17T11:52:16.460Z,100587.13
2019-05-17T11:54:46.849Z,100584.87
2019-05-17T11:57:17.492Z,100585.97
2019-05-17T11:59:49.901Z,100582.46
2019-05-17T12:02:21.609Z,100584.28
2019-05-17T12:04:53.767Z,100575.75
2019-05-17T12:07:24.639Z,100574.98
2019-05-17T12:09:55.442Z,100573.50
2019-05-17T12:12:26.191Z,100573.37
2019-05-17T12:14:56.838Z,100573.48
2019-05-17T12:17:27.539Z,100572.58
2019-05-17T12:19:58.396Z,100567.61
2019-05-17T12:22:29.012Z,100566.69
2019-05-17T12:25:00.020Z,100569.91
2019-05-17T12:27:30.612Z,100566.70
2019-05-17T12:30:01.119Z,100563.88
2019-05-17T12:32:31.740Z,100562.67
2019-05-17T12:35:02.465Z,100565.67
2019-05-17T12:37:33.432Z,100568.63
2019-05-17T12:40:04.016Z,100568.32
2019-05-17T12:42:34.554Z,100567.30
2019-05-17T12:45:05.351Z,100564.80
2019-05-17T12:47:35.974Z,100557.16
2019-05-17T12:50:06.676Z,100550.39
2019-05-17T12:52:37.536Z,100547.59
2019-05-17T12:55:08.250Z,100546.74
2019-05-17T12:57:38.810Z,100553.33
2019-05-17T13:00:11.651Z,100553.25
2019-05-17T13:02:42.260Z,100551.00
2019-05-17T13:05:13.193Z,100548.23
2019-05-17T13:07:43.781Z,100546.18
2019-05-17T13:10:18.615Z,100551.63
2019-05-17T13:12:49.128Z,100549.05
2019-05-17T13:15:20.852Z,100550.81
2019-05-17T13:17:51.754Z,100544.34
2019-05-17T13:20:26.762Z,100544.27
2019-05-17T13:22:57.329Z,100538.12
2019-05-17T13:25:27.969Z,100530.99
2019-05-17T13:27:58.565Z,100532.42
2019-05-17T13:30:29.189Z,100531.03
2019-05-17T13:32:59.807Z,100534.58
2019-05-17T13:35:30.427Z,100534.59
2019-05-17T13:38:01.114Z,100524.25
2019-05-17T13:40:39.244Z,100522.98
2019-05-17T13:43:04.677Z,100517.61
2019-05-17T13:45:36.136Z,100514.95
2019-05-17T13:48:06.642Z,100518.88
2019-05-17T13:50:38.991Z,100510.98
2019-05-17T13:53:09.609Z,100517.30
2019-05-17T13:55:40.402Z,100513.57
2019-05-17T13:58:10.945Z,100510.55
2019-05-17T14:00:41.649Z,100510.45
2019-05-17T14:03:12.206Z,100509.75
2019-05-17T14:05:42.706Z,100511.17
2019-05-17T14:08:13.247Z,100515.75
2019-05-17T14:10:44.132Z,100507.79
2019-05-17T14:13:14.734Z,100503.19
2019-05-17T14:15:46.063Z,100506.61
2019-05-17T14:18:16.706Z,100505.94
2019-05-17T14:20:47.217Z,100502.13
2019-05-17T14:23:17.791Z,100512.40
2019-05-17T14:25:48.474Z,100504.66
2019-05-17T14:28:18.999Z,100501.30
2019-05-17T14:30:49.496Z,100503.09
2019-05-17T14:33:20.017Z,100507.64
2019-05-17T14:35:50.580Z,100505.95
2019-05-17T14:38:21.160Z,100499.66
2019-05-17T14:41:06.686Z,100503.80
2019-05-17T14:43:26.174Z,100506.22
2019-05-17T14:45:56.692Z,100507.42
2019-05-17T14:48:27.234Z,100502.55
2019-05-17T14:50:57.743Z,100505.19
2019-05-17T14:53:28.258Z,100503.92
2019-05-17T14:55:58.784Z,100510.20
2019-05-17T14:58:29.426Z,100510.92
2019-05-17T15:00:59.961Z,100499.31
2019-05-17T15:03:30.439Z,100499.06
2019-05-17T15:06:00.989Z,100504.68
2019-05-17T15:08:32.758Z,100503.09
2019-05-17T15:11:02.240Z,100503.69
2019-05-17T15:13:32.764Z,100504.24
2019-05-17T15:16:03.459Z,100505.70
2019-05-17T15:18:33.925Z,100503.38
2019-05-17T15:21:04.773Z,100503.61
2019-05-17T15:23:35.281Z,100499.63
2019-05-17T15:26:05.783Z,100496.78
2019-05-17T15:28:36.335Z,100488.23
2019-05-17T15:31:06.855Z,100484.66
2019-05-17T15:33:37.348Z,100480.80
2019-05-17T15:36:07.969Z,100480.59
2019-05-17T15:38:38.543Z,100476.05
2019-05-17T15:41:09.126Z,100478.05
2019-05-17T15:43:39.702Z,100472.98
2019-05-17T15:46:10.255Z,100473.14
2019-05-17T15:48:40.828Z,100467.70
2019-05-17T15:51:11.610Z,100466.09
2019-05-17T15:53:42.126Z,100463.77
2019-05-17T15:56:12.561Z,100466.76
2019-05-17T15:58:43.250Z,100465.84
2019-05-17T16:01:15.888Z,100463.44
2019-05-17T16:03:46.625Z,100457.14
2019-05-17T16:06:17.241Z,100462.20
2019-05-17T16:08:47.875Z,100464.41
2019-05-17T16:11:18.812Z,100460.42
2019-05-17T16:13:50.735Z,100462.86
2019-05-17T16:16:21.318Z,100461.53
2019-05-17T16:18:51.972Z,100464.52
2019-05-17T16:21:22.587Z,100461.14
2019-05-17T16:23:53.132Z,100450.07
2019-05-17T16:26:23.681Z,100450.33
2019-05-17T16:28:54.379Z,100445.80
2019-05-17T16:31:25.687Z,100446.27
2019-05-17T16:33:56.256Z,100445.02
2019-05-17T16:36:26.923Z,100446.48
2019-05-17T16:38:57.484Z,100446.48
2019-05-17T16:41:29.092Z,100443.87
2019-05-17T16:43:59.675Z,100440.58
2019-05-17T16:46:30.306Z,100444.02
2019-05-17T16:49:00.761Z,100439.39
2019-05-17T16:51:31.323Z,100439.17
2019-05-17T16:54:01.840Z,100439.12
2019-05-17T16:56:32.607Z,100441.42
2019-05-17T16:59:03.255Z,100441.94
2019-05-17T17:01:33.865Z,100446.68
2019-05-17T17:04:04.457Z,100445.45
2019-05-17T17:06:34.990Z,100446.98
2019-05-17T17:09:06.888Z,100440.80
2019-05-17T17:11:37.415Z,100440.95
2019-05-17T17:14:07.968Z,100439.85
2019-05-17T17:16:38.422Z,100433.19
2019-05-17T17:19:09.060Z,100433.84
2019-05-17T17:21:39.647Z,100446.18
2019-05-17T17:24:10.221Z,100442.23
2019-05-17T17:26:40.797Z,100430.23
2019-05-17T17:29:11.341Z,100432.14
2019-05-17T17:31:41.909Z,100438.55
2019-05-17T17:34:12.399Z,100435.08
2019-05-17T17:36:42.857Z,100443.57
2019-05-17T17:39:13.424Z,100434.88
2019-05-17T17:41:43.903Z,100433.19
2019-05-17T17:44:14.422Z,100438.56
2019-05-17T17:46:44.987Z,100435.12
2019-05-17T17:49:15.505Z,100442.25
2019-05-17T17:51:46.074Z,100434.13
2019-05-17T17:54:16.611Z,100437.61
2019-05-17T17:56:47.139Z,100433.63
2019-05-17T17:59:17.633Z,100434.59
2019-05-17T18:01:48.289Z,100438.75
2019-05-17T18:04:18.817Z,100436.80
2019-05-17T18:06:49.325Z,100437.11
2019-05-17T18:09:19.921Z,100430.06
2019-05-17T18:11:50.462Z,100428.84
2019-05-17T18:14:21.037Z,100434.33
2019-05-17T18:16:51.582Z,100431.95
2019-05-17T18:19:22.124Z,100434.38
2019-05-17T18:21:52.723Z,100439.02
2019-05-17T18:24:23.239Z,100441.59
2019-05-17T18:26:53.822Z,100435.42
2019-05-17T18:29:24.446Z,100443.45
2019-05-17T18:31:55.013Z,100440.46
2019-05-17T18:34:25.594Z,100448.47
2019-05-17T18:36:56.215Z,100444.64
2019-05-17T18:39:26.743Z,100452.45
2019-05-17T18:41:57.347Z,100450.45
2019-05-17T18:44:28.294Z,100452.61
2019-05-17T18:46:58.784Z,100453.61
2019-05-17T18:49:29.258Z,100448.79
2019-05-17T18:51:59.974Z,100450.45
2019-05-17T18:54:30.589Z,100452.28
2019-05-17T18:57:01.279Z,100452.88
2019-05-17T18:59:31.816Z,100453.70
2019-05-17T19:02:02.532Z,100455.02
2019-05-17T19:04:33.256Z,100456.51
2019-05-17T19:07:03.915Z,100454.50
2019-05-17T19:09:34.596Z,100458.11
2019-05-17T19:12:05.433Z,100469.02
2019-05-17T19:14:42.959Z,100463.91
2019-05-17T19:17:09.182Z,100466.84
2019-05-17T19:19:39.827Z,100473.06
2019-05-17T19:22:10.489Z,100474.45
2019-05-17T19:24:41.049Z,100480.39
2019-05-17T19:27:11.650Z,100483.44
2019-05-17T19:29:43.395Z,100484.91
2019-05-17T19:32:14.224Z,100485.82
2019-05-17T19:34:44.881Z,100484.04
2019-05-17T19:37:16.066Z,100479.12
2019-05-17T19:39:46.871Z,100481.09
2019-05-17T19:42:17.844Z,100477.53
2019-05-17T19:44:58.728Z,100481.38
2019-05-17T19:47:20.978Z,100489.76
2019-05-17T19:49:51.701Z,100481.40
2019-05-17T19:52:22.553Z,100487.29
2019-05-17T19:54:53.270Z,100480.73
2019-05-17T19:57:24.053Z,100489.42
2019-05-17T19:59:55.105Z,100477.79
2019-05-17T20:02:25.875Z,100478.74
2019-05-17T20:04:56.454Z,100478.52
2019-05-17T20:07:39.759Z,100481.70
2019-05-17T20:10:11.664Z,100485.11
2019-05-17T20:12:42.268Z,100483.55
2019-05-17T20:15:17.825Z,100485.91
2019-05-17T20:17:45.983Z,100476.34
2019-05-17T20:20:17.261Z,100488.43
2019-05-17T20:22:47.863Z,100485.73
2019-05-17T20:25:19.917Z,100482.38
2019-05-17T20:27:50.444Z,100482.42
2019-05-17T20:30:21.541Z,100484.40
2019-05-17T20:32:52.104Z,100483.60
2019-05-17T20:35:22.649Z,100476.51
2019-05-17T20:37:53.301Z,100480.72
2019-05-17T20:40:23.982Z,100478.87
2019-05-17T20:42:54.533Z,100478.41
2019-05-17T20:45:33.177Z,100479.30
2019-05-17T20:47:57.791Z,100474.53
2019-05-17T20:50:28.393Z,100470.13
2019-05-17T20:52:59.028Z,100471.69
2019-05-17T20:55:29.617Z,100468.98
2019-05-17T20:58:00.287Z,100462.31
2019-05-17T21:00:30.980Z,100466.23
2019-05-17T21:03:01.609Z,100463.69
2019-05-17T21:05:32.191Z,100466.81
2019-05-17T21:08:02.941Z,100462.65
2019-05-17T21:10:33.438Z,100461.38
2019-05-17T21:13:04.017Z,100453.62
2019-05-17T21:15:47.053Z,100458.06
2019-05-17T21:18:06.888Z,100447.66
2019-05-17T21:20:37.855Z,100458.41
2019-05-17T21:23:08.435Z,100450.92
2019-05-17T21:25:38.957Z,100454.84
2019-05-17T21:28:09.482Z,100457.40
2019-05-17T21:30:40.064Z,100453.52
2019-05-17T21:33:10.572Z,100455.13
2019-05-17T21:35:41.131Z,100452.23
2019-05-17T21:38:11.651Z,100450.73
2019-05-17T21:40:42.173Z,100449.65
2019-05-17T21:43:12.772Z,100451.77
2019-05-17T21:45:43.268Z,100449.53
2019-05-17T21:48:13.852Z,100453.09
2019-05-17T21:50:44.412Z,100447.89
2019-05-17T21:53:14.933Z,100451.44
2019-05-17T21:55:45.461Z,100453.05
2019-05-17T21:58:20.223Z,100451.34
2019-05-17T22:01:19.256Z,100453.38
2019-05-17T22:03:49.942Z,100450.83
2019-05-17T22:06:20.672Z,100448.98
2019-05-17T22:08:51.235Z,100448.23
2019-05-17T22:11:21.779Z,100441.80
2019-05-17T22:13:52.483Z,100450.64
2019-05-17T22:16:22.965Z,100448.69
2019-05-17T22:18:53.559Z,100445.77
2019-05-17T22:21:24.066Z,100450.64
2019-05-17T22:23:55.306Z,100444.06
2019-05-17T22:26:25.853Z,100448.98
2019-05-17T22:28:56.559Z,100441.33
2019-05-17T22:31:27.058Z,100439.05
2019-05-17T22:33:57.682Z,100444.40
2019-05-17T22:36:28.462Z,100444.06
2019-05-17T22:38:59.037Z,100433.33
2019-05-17T22:41:29.640Z,100437.06
2019-05-17T22:44:00.131Z,100438.95
2019-05-17T22:46:35.948Z,100441.26
2019-05-17T22:49:02.964Z,100443.95
2019-05-17T22:51:33.619Z,100430.28
2019-05-17T22:54:04.224Z,100434.59
2019-05-17T22:56:34.799Z,100433.55
2019-05-17T22:59:05.420Z,100434.78
2019-05-17T23:01:35.907Z,100433.55
2019-05-17T23:04:06.886Z,100439.80
2019-05-17T23:06:37.435Z,100435.42
2019-05-17T23:09:08.658Z,100430.00
2019-05-17T23:11:39.349Z,100434.82
2019-05-17T23:14:09.917Z,100432.89
2019-05-17T23:16:51.217Z,100432.97
2019-05-17T23:19:12.698Z,100430.14
2019-05-17T23:21:43.282Z,100430.13
2019-05-17T23:24:13.801Z,100436.62
2019-05-17T23:26:44.260Z,100434.57
2019-05-17T23:29:14.745Z,100431.59
2019-05-17T23:31:45.263Z,100427.06
2019-05-17T23:34:15.785Z,100425.09
2019-05-17T23:36:46.334Z,100424.19
2019-05-17T23:39:16.874Z,100425.15
2019-05-17T23:41:47.416Z,100423.44
2019-05-17T23:44:17.930Z,100416.91
2019-05-17T23:46:48.445Z,100418.80
2019-05-17T23:49:19.025Z,100417.86
2019-05-17T23:51:49.465Z,100420.21
2019-05-17T23:54:19.998Z,100420.21
2019-05-17T23:56:50.584Z,100420.27
2019-05-17T23:59:21.217Z,100420.17
